createdAt,value
2022-10-26T00:01:11.273Z,15.90
2022-10-26T00:03:40.790Z,15.90
2022-10-26T00:06:24.795Z,15.90
2022-10-26T00:08:52.790Z,15.90
2022-10-26T00:11:19.867Z,15.80
2022-10-26T00:13:47.940Z,15.80
2022-10-26T00:16:33.407Z,15.80
2022-10-26T00:19:00.547Z,15.80
2022-10-26T00:21:28.038Z,15.80
2022-10-26T00:23:55.077Z,15.80
2022-10-26T00:26:22.360Z,15.80
2022-10-26T00:28:49.409Z,15.70
2022-10-26T00:31:17.078Z,15.70
2022-10-26T00:33:44.606Z,15.80
2022-10-26T00:36:14.595Z,15.70
2022-10-26T00:38:46.037Z,15.80
2022-10-26T00:41:17.612Z,15.70
2022-10-26T00:43:44.890Z,15.80
2022-10-26T00:46:16.894Z,15.70
2022-10-26T00:48:49.704Z,15.80
2022-10-26T00:51:24.040Z,15.80
2022-10-26T00:53:52.350Z,15.80
2022-10-26T00:56:19.945Z,15.80
2022-10-26T00:58:47.656Z,15.90
2022-10-26T01:01:15.421Z,15.90
2022-10-26T01:03:43.284Z,15.90
2022-10-26T01:06:11.591Z,15.90
2022-10-26T01:08:39.302Z,15.90
2022-10-26T01:11:06.513Z,16.00
2022-10-26T01:13:35.948Z,16.00
2022-10-26T01:16:08.517Z,16.00
2022-10-26T01:18:53.078Z,16.00
2022-10-26T01:21:40.864Z,16.00
2022-10-26T01:24:29.240Z,16.00
2022-10-26T01:27:09.746Z,16.10
2022-10-26T01:29:59.190Z,16.10
2022-10-26T01:33:16.302Z,16.10
2022-10-26T01:36:19.281Z,16.10
2022-10-26T01:39:01.187Z,16.10
2022-10-26T01:41:33.635Z,16.10
2022-10-26T01:44:05.581Z,16.20
2022-10-26T01:46:39.553Z,16.30
2022-10-26T01:49:10.628Z,16.40
2022-10-26T01:51:41.115Z,16.50
2022-10-26T01:54:08.119Z,16.50
2022-10-26T01:56:39.296Z,16.60
2022-10-26T01:59:17.965Z,16.70
2022-10-26T02:02:12.989Z,16.70
2022-10-26T02:04:39.783Z,16.80
2022-10-26T02:07:31.580Z,16.80
2022-10-26T02:10:13.982Z,16.80
2022-10-26T02:12:52.222Z,16.80
2022-10-26T02:15:58.086Z,16.80
2022-10-26T02:18:59.473Z,16.90
2022-10-26T02:21:32.124Z,16.90
2022-10-26T02:23:59.935Z,16.90
2022-10-26T02:26:29.745Z,16.90
2022-10-26T02:29:01.243Z,16.90
2022-10-26T02:31:29.048Z,16.90
2022-10-26T02:34:00.188Z,16.90
2022-10-26T02:36:30.298Z,16.90
2022-10-26T02:38:59.759Z,16.90
2022-10-26T02:41:28.756Z,17.00
2022-10-26T02:44:12.579Z,17.00
2022-10-26T02:46:40.309Z,17.00
2022-10-26T02:49:07.518Z,17.00
2022-10-26T02:52:01.080Z,17.00
2022-10-26T02:54:50.053Z,17.10
2022-10-26T02:57:26.343Z,17.00
2022-10-26T02:59:54.147Z,17.00
2022-10-26T03:02:22.353Z,16.90
2022-10-26T03:04:51.007Z,17.00
2022-10-26T03:07:23.047Z,17.10
2022-10-26T03:09:50.125Z,17.10
2022-10-26T03:12:17.143Z,17.10
2022-10-26T03:14:44.221Z,17.20
2022-10-26T03:17:11.410Z,17.20
2022-10-26T03:19:38.530Z,17.20
2022-10-26T03:22:05.819Z,17.30
2022-10-26T03:24:32.777Z,17.30
2022-10-26T03:27:02.155Z,17.20
2022-10-26T03:29:29.620Z,17.30
2022-10-26T03:31:56.723Z,17.30
2022-10-26T03:34:23.779Z,17.30
2022-10-26T03:36:50.657Z,17.30
2022-10-26T03:39:17.984Z,17.40
2022-10-26T03:41:44.869Z,17.40
2022-10-26T03:44:11.753Z,17.40
2022-10-26T03:46:38.717Z,17.40
2022-10-26T03:49:05.960Z,17.40
2022-10-26T03:51:32.904Z,17.50
2022-10-26T03:53:59.890Z,17.50
2022-10-26T03:56:26.840Z,17.50
2022-10-26T03:58:53.940Z,17.50
2022-10-26T04:01:20.929Z,17.30
2022-10-26T04:03:48.150Z,17.50
2022-10-26T04:06:15.009Z,17.50
2022-10-26T04:08:41.905Z,17.50
2022-10-26T04:11:08.911Z,17.40
2022-10-26T04:13:35.894Z,17.50
2022-10-26T04:16:02.906Z,17.50
2022-10-26T04:18:29.816Z,17.50
2022-10-26T04:21:00.487Z,17.50
2022-10-26T04:23:27.480Z,17.60
2022-10-26T04:25:54.451Z,17.50
2022-10-26T04:28:21.453Z,17.60
2022-10-26T04:30:48.554Z,17.60
2022-10-26T04:33:15.584Z,17.60
2022-10-26T04:35:43.110Z,17.70
2022-10-26T04:38:10.247Z,17.70
2022-10-26T04:40:37.706Z,17.80
2022-10-26T04:43:04.638Z,17.70
2022-10-26T04:45:31.733Z,17.70
2022-10-26T04:48:07.226Z,17.70
2022-10-26T04:50:35.062Z,17.70
2022-10-26T04:53:04.324Z,17.70
2022-10-26T04:55:31.566Z,17.70
2022-10-26T04:58:01.125Z,17.60
2022-10-26T05:00:30.432Z,17.50
2022-10-26T05:03:04.895Z,17.50
2022-10-26T05:05:34.375Z,17.50
2022-10-26T05:08:01.483Z,17.40
2022-10-26T05:10:29.384Z,17.40
2022-10-26T05:12:57.856Z,17.40
2022-10-26T05:15:24.944Z,17.40
2022-10-26T05:17:59.800Z,17.40
2022-10-26T05:20:31.390Z,17.40
2022-10-26T05:23:06.957Z,17.30
2022-10-26T05:25:37.073Z,17.30
2022-10-26T05:28:08.048Z,17.10
2022-10-26T05:30:35.410Z,17.30
2022-10-26T05:33:05.896Z,17.30
2022-10-26T05:35:33.575Z,17.30
2022-10-26T05:38:06.505Z,17.30
2022-10-26T05:40:33.537Z,17.30
2022-10-26T05:43:02.226Z,17.30
2022-10-26T05:45:29.777Z,17.30
2022-10-26T05:47:59.975Z,17.30
2022-10-26T05:50:29.673Z,17.30
2022-10-26T05:52:56.794Z,17.30
2022-10-26T05:55:24.335Z,17.40
2022-10-26T05:57:51.978Z,17.40
2022-10-26T06:00:27.579Z,17.30
2022-10-26T06:03:13.182Z,17.30
2022-10-26T06:05:52.702Z,17.30
2022-10-26T06:08:21.361Z,17.30
2022-10-26T06:10:49.174Z,17.20
2022-10-26T06:13:16.738Z,17.20
2022-10-26T06:16:05.307Z,17.20
2022-10-26T06:18:52.289Z,17.20
2022-10-26T06:21:37.902Z,17.20
2022-10-26T06:24:32.005Z,17.20
2022-10-26T06:27:19.589Z,17.10
2022-10-26T06:29:55.576Z,17.10
2022-10-26T06:32:25.047Z,17.20
2022-10-26T06:34:58.302Z,17.20
2022-10-26T06:37:26.301Z,17.20
2022-10-26T06:39:54.956Z,17.20
2022-10-26T06:42:22.628Z,17.10
2022-10-26T06:44:49.871Z,17.20
2022-10-26T06:47:23.983Z,17.20
2022-10-26T06:50:27.286Z,17.20
2022-10-26T06:52:57.008Z,17.30
2022-10-26T06:55:24.316Z,17.20
2022-10-26T06:57:51.688Z,17.20
2022-10-26T07:00:23.732Z,17.20
2022-10-26T07:02:51.750Z,17.20
2022-10-26T07:05:19.061Z,17.20
2022-10-26T07:07:48.178Z,17.20
2022-10-26T07:10:16.183Z,17.20
2022-10-26T07:12:43.335Z,17.20
2022-10-26T07:15:10.833Z,17.20
2022-10-26T07:17:49.195Z,17.20
2022-10-26T07:20:20.084Z,17.30
2022-10-26T07:22:54.029Z,17.30
2022-10-26T07:25:21.489Z,17.40
2022-10-26T07:27:48.691Z,17.40
2022-10-26T07:30:16.995Z,17.40
2022-10-26T07:32:44.408Z,17.40
2022-10-26T07:35:11.847Z,17.40
2022-10-26T07:37:38.779Z,17.40
2022-10-26T07:40:07.179Z,17.40
2022-10-26T07:42:34.740Z,17.40
2022-10-26T07:45:01.754Z,17.40
2022-10-26T07:47:28.745Z,17.50
2022-10-26T07:49:55.920Z,17.50
2022-10-26T07:52:22.955Z,17.60
2022-10-26T07:54:50.397Z,17.70
2022-10-26T07:57:17.851Z,17.70
2022-10-26T07:59:44.974Z,17.80
2022-10-26T08:02:12.385Z,17.90
2022-10-26T08:04:39.252Z,17.90
2022-10-26T08:07:06.690Z,17.90
2022-10-26T08:09:33.750Z,18.00
2022-10-26T08:12:00.698Z,18.00
2022-10-26T08:14:27.724Z,18.10
2022-10-26T08:16:54.596Z,18.20
2022-10-26T08:19:21.698Z,18.20
2022-10-26T08:21:49.086Z,18.40
2022-10-26T08:24:15.993Z,18.40
2022-10-26T08:26:43.355Z,18.40
2022-10-26T08:29:10.276Z,18.40
2022-10-26T08:31:37.483Z,18.40
2022-10-26T08:34:04.559Z,18.50
2022-10-26T08:36:31.675Z,18.60
2022-10-26T08:41:45.992Z,18.80
2022-10-26T08:44:37.618Z,18.80
2022-10-26T08:50:11.186Z,18.80
2022-10-26T08:52:54.002Z,18.80
2022-10-26T08:55:33.256Z,19.00
2022-10-26T08:58:05.687Z,19.20
2022-10-26T09:00:32.995Z,19.20
2022-10-26T09:03:00.120Z,19.20
2022-10-26T09:06:03.811Z,19.20
2022-10-26T09:08:49.087Z,19.20
2022-10-26T09:11:36.720Z,19.40
2022-10-26T09:14:25.128Z,19.50
2022-10-26T09:17:25.146Z,19.60
2022-10-26T09:20:27.038Z,19.80
2022-10-26T09:23:00.737Z,20.00
2022-10-26T09:25:38.089Z,20.10
2022-10-26T09:28:06.144Z,20.20
2022-10-26T09:30:35.314Z,20.20
2022-10-26T09:33:25.349Z,20.20
2022-10-26T09:36:00.461Z,20.30
2022-10-26T09:38:33.543Z,20.20
2022-10-26T09:41:11.071Z,20.20
2022-10-26T09:46:25.697Z,20.50
2022-10-26T09:48:57.046Z,20.50
2022-10-26T09:51:24.213Z,20.40
2022-10-26T09:53:51.382Z,20.50
2022-10-26T09:56:19.190Z,20.60
2022-10-26T09:59:00.407Z,20.80
2022-10-26T10:01:45.095Z,20.80
2022-10-26T10:04:17.692Z,20.80
2022-10-26T10:06:46.338Z,20.90
2022-10-26T10:09:16.512Z,20.90
2022-10-26T10:11:56.910Z,20.90
2022-10-26T10:14:56.604Z,20.90
2022-10-26T10:17:24.308Z,21.00
2022-10-26T10:19:51.887Z,20.90
2022-10-26T10:22:23.444Z,21.00
2022-10-26T10:24:54.666Z,21.10
2022-10-26T10:27:23.326Z,21.10
2022-10-26T10:29:59.872Z,21.00
2022-10-26T10:32:35.528Z,20.90
2022-10-26T10:35:23.901Z,21.10
2022-10-26T10:37:51.826Z,21.10
2022-10-26T10:40:22.986Z,21.20
2022-10-26T10:42:52.610Z,21.30
2022-10-26T10:45:24.536Z,21.40
2022-10-26T10:48:12.501Z,21.50
2022-10-26T10:50:56.398Z,21.60
2022-10-26T10:53:37.130Z,21.60
2022-10-26T10:56:21.412Z,21.80
2022-10-26T10:59:13.082Z,21.90
2022-10-26T11:01:58.030Z,22.00
2022-10-26T11:04:43.475Z,22.00
2022-10-26T11:07:13.520Z,21.90
2022-10-26T11:09:45.214Z,21.90
2022-10-26T11:12:37.913Z,22.00
2022-10-26T11:15:18.405Z,22.10
2022-10-26T11:18:07.562Z,22.20
2022-10-26T11:20:40.477Z,22.30
2022-10-26T11:23:18.327Z,22.40
2022-10-26T11:25:51.412Z,22.50
2022-10-26T11:28:39.022Z,22.60
2022-10-26T11:31:17.550Z,22.80
2022-10-26T11:34:08.048Z,22.60
2022-10-26T11:36:36.269Z,22.60
2022-10-26T11:39:21.092Z,22.50
2022-10-26T11:41:54.983Z,22.50
2022-10-26T11:44:40.200Z,22.60
2022-10-26T11:47:17.747Z,22.80
2022-10-26T11:49:54.181Z,22.80
2022-10-26T11:52:45.213Z,22.70
2022-10-26T11:55:12.356Z,22.70
2022-10-26T11:57:40.925Z,22.70
2022-10-26T12:00:20.831Z,22.70
2022-10-26T12:02:55.186Z,22.80
2022-10-26T12:05:40.611Z,22.70
2022-10-26T12:08:21.629Z,22.80
2022-10-26T12:11:25.074Z,22.90
2022-10-26T12:14:03.075Z,22.80
2022-10-26T12:16:48.570Z,22.80
2022-10-26T12:19:53.610Z,22.90
2022-10-26T12:22:23.746Z,23.00
2022-10-26T12:25:15.457Z,23.10
2022-10-26T12:27:43.272Z,23.20
2022-10-26T12:30:19.512Z,23.20
2022-10-26T12:32:48.645Z,23.20
2022-10-26T12:35:34.581Z,23.00
2022-10-26T12:38:21.430Z,23.10
2022-10-26T12:40:49.658Z,23.00
2022-10-26T12:43:16.584Z,23.00
2022-10-26T12:46:07.349Z,23.10
2022-10-26T12:48:46.026Z,23.00
2022-10-26T12:51:22.476Z,23.10
2022-10-26T12:53:58.352Z,23.30
2022-10-26T12:56:35.807Z,23.40
2022-10-26T12:59:20.858Z,23.50
2022-10-26T13:02:04.158Z,23.50
2022-10-26T13:04:49.723Z,23.40
2022-10-26T13:07:21.234Z,23.30
2022-10-26T13:10:12.021Z,23.30
2022-10-26T13:13:00.450Z,23.10
2022-10-26T13:15:28.788Z,23.00
2022-10-26T13:18:07.752Z,23.00
2022-10-26T13:20:37.599Z,23.10
2022-10-26T13:23:16.454Z,23.10
2022-10-26T13:26:02.583Z,23.10
2022-10-26T13:28:37.877Z,23.20
2022-10-26T13:31:11.513Z,23.20
2022-10-26T13:33:43.302Z,23.10
2022-10-26T13:36:25.987Z,23.20
2022-10-26T13:38:54.333Z,23.20
2022-10-26T13:41:36.858Z,23.10
2022-10-26T13:44:06.737Z,23.10
2022-10-26T13:46:39.082Z,23.10
2022-10-26T13:49:19.338Z,23.20
2022-10-26T13:51:50.223Z,23.20
2022-10-26T13:54:25.712Z,23.30
2022-10-26T13:57:03.170Z,23.30
2022-10-26T13:59:33.255Z,23.40
2022-10-26T14:02:19.902Z,23.40
2022-10-26T14:05:10.462Z,23.40
2022-10-26T14:07:56.970Z,23.30
2022-10-26T14:10:47.053Z,23.40
2022-10-26T14:13:17.709Z,23.40
2022-10-26T14:15:46.783Z,23.50
2022-10-26T14:18:19.146Z,23.40
2022-10-26T14:21:06.943Z,23.50
2022-10-26T14:24:00.698Z,23.60
2022-10-26T14:26:39.183Z,23.70
2022-10-26T14:29:19.210Z,23.80
2022-10-26T14:31:47.381Z,23.50
2022-10-26T14:34:14.327Z,23.40
2022-10-26T14:36:59.418Z,23.40
2022-10-26T14:39:41.554Z,23.40
2022-10-26T14:42:33.547Z,23.40
2022-10-26T14:45:02.274Z,23.30
2022-10-26T14:47:32.042Z,23.20
2022-10-26T14:52:33.981Z,23.20
2022-10-26T14:55:14.119Z,23.20
2022-10-26T14:57:43.220Z,23.20
2022-10-26T15:00:22.442Z,23.30
2022-10-26T15:02:56.059Z,23.20
2022-10-26T15:05:33.328Z,23.20
2022-10-26T15:08:05.680Z,23.30
2022-10-26T15:10:38.645Z,23.20
2022-10-26T15:13:09.179Z,23.20
2022-10-26T15:15:39.574Z,23.20
2022-10-26T15:18:24.465Z,23.20
2022-10-26T15:20:53.165Z,23.10
2022-10-26T15:23:22.256Z,23.00
2022-10-26T15:26:03.785Z,22.90
2022-10-26T15:28:40.626Z,22.80
2022-10-26T15:31:10.747Z,22.80
2022-10-26T15:33:40.274Z,22.80
2022-10-26T15:36:19.983Z,22.80
2022-10-26T15:38:50.808Z,22.70
2022-10-26T15:41:27.558Z,22.80
2022-10-26T15:43:59.143Z,22.80
2022-10-26T15:46:30.431Z,22.90
2022-10-26T15:49:00.020Z,22.80
2022-10-26T15:51:28.604Z,22.90
2022-10-26T15:53:57.892Z,22.90
2022-10-26T15:56:26.358Z,22.90
2022-10-26T15:58:54.717Z,22.80
2022-10-26T16:01:24.071Z,22.60
2022-10-26T16:03:52.245Z,22.50
2022-10-26T16:06:31.553Z,22.40
2022-10-26T16:09:02.203Z,22.30
2022-10-26T16:11:32.991Z,22.10
2022-10-26T16:14:02.814Z,22.10
2022-10-26T16:16:31.556Z,22.00
2022-10-26T16:19:18.280Z,21.90
2022-10-26T16:21:45.750Z,21.80
2022-10-26T16:24:12.735Z,21.70
2022-10-26T16:26:39.888Z,21.70
2022-10-26T16:29:06.857Z,21.70
2022-10-26T16:31:33.878Z,21.50
2022-10-26T16:34:04.115Z,21.40
2022-10-26T16:36:34.119Z,21.30
2022-10-26T16:41:31.269Z,21.20
2022-10-26T16:43:58.745Z,21.10
2022-10-26T16:46:25.751Z,21.00
2022-10-26T16:48:53.098Z,20.90
2022-10-26T16:51:26.484Z,20.90
2022-10-26T16:53:56.705Z,20.90
2022-10-26T16:56:27.580Z,20.80
2022-10-26T16:58:55.218Z,20.70
2022-10-26T17:01:22.479Z,20.60
2022-10-26T17:03:51.957Z,20.60
2022-10-26T17:06:19.863Z,20.50
2022-10-26T17:08:47.417Z,20.40
2022-10-26T17:11:17.315Z,20.30
2022-10-26T17:13:44.733Z,20.20
2022-10-26T17:16:14.630Z,20.10
2022-10-26T17:18:43.268Z,20.00
2022-10-26T17:21:12.224Z,20.00
2022-10-26T17:23:39.438Z,19.90
2022-10-26T17:26:09.565Z,19.80
2022-10-26T17:28:37.407Z,19.70
2022-10-26T17:31:07.319Z,19.70
2022-10-26T17:33:39.376Z,19.60
2022-10-26T17:36:08.256Z,19.60
2022-10-26T17:38:37.384Z,19.60
2022-10-26T17:41:09.326Z,19.60
2022-10-26T17:43:37.614Z,19.50
2022-10-26T17:46:08.427Z,19.50
2022-10-26T17:48:36.217Z,19.40
2022-10-26T17:51:08.892Z,19.40
2022-10-26T17:53:36.467Z,19.30
2022-10-26T17:56:04.822Z,19.20
2022-10-26T17:58:33.667Z,19.20
2022-10-26T18:01:06.483Z,19.10
2022-10-26T18:03:34.352Z,19.00
2022-10-26T18:06:01.910Z,19.00
2022-10-26T18:08:32.169Z,19.00
2022-10-26T18:10:59.480Z,18.90
2022-10-26T18:13:31.574Z,18.90
2022-10-26T18:16:05.449Z,19.00
2022-10-26T18:18:33.138Z,18.90
2022-10-26T18:21:01.898Z,18.80
2022-10-26T18:23:28.979Z,18.80
2022-10-26T18:26:11.393Z,18.80
2022-10-26T18:28:40.809Z,18.90
2022-10-26T18:31:13.138Z,18.80
2022-10-26T18:33:40.216Z,18.80
2022-10-26T18:36:10.547Z,18.80
2022-10-26T18:38:39.916Z,18.70
2022-10-26T18:41:08.326Z,18.70
2022-10-26T18:43:40.006Z,18.70
2022-10-26T18:46:12.652Z,18.70
2022-10-26T18:48:42.636Z,18.70
2022-10-26T18:51:15.132Z,18.70
2022-10-26T18:53:44.616Z,18.70
2022-10-26T18:56:17.514Z,18.70
2022-10-26T18:58:48.353Z,18.70
2022-10-26T19:01:18.861Z,18.70
2022-10-26T19:03:46.814Z,18.70
2022-10-26T19:06:17.588Z,18.70
2022-10-26T19:08:45.788Z,18.70
2022-10-26T19:11:15.157Z,18.60
2022-10-26T19:13:43.037Z,18.60
2022-10-26T19:16:40.326Z,18.60
2022-10-26T19:19:11.528Z,18.50
2022-10-26T19:21:38.941Z,18.50
2022-10-26T19:24:13.027Z,18.50
2022-10-26T19:26:43.414Z,18.50
2022-10-26T19:29:16.432Z,18.50
2022-10-26T19:31:45.623Z,18.40
2022-10-26T19:34:14.526Z,18.40
2022-10-26T19:36:45.394Z,18.40
2022-10-26T19:39:17.484Z,18.40
2022-10-26T19:41:47.212Z,18.40
2022-10-26T19:44:15.803Z,18.40
2022-10-26T19:46:44.165Z,18.40
2022-10-26T19:49:13.182Z,18.40
2022-10-26T19:51:40.614Z,18.40
2022-10-26T19:54:07.790Z,18.40
2022-10-26T19:56:36.494Z,18.30
2022-10-26T19:59:04.805Z,18.30
2022-10-26T20:01:32.205Z,18.30
2022-10-26T20:04:02.422Z,18.30
2022-10-26T20:06:30.937Z,18.30
2022-10-26T20:08:58.651Z,18.20
2022-10-26T20:11:26.083Z,18.20
2022-10-26T20:13:55.075Z,18.20
2022-10-26T20:16:22.142Z,18.20
2022-10-26T20:18:49.467Z,18.30
2022-10-26T20:21:17.712Z,18.20
2022-10-26T20:23:45.439Z,18.30
2022-10-26T20:26:19.369Z,18.30
2022-10-26T20:28:49.012Z,18.20
2022-10-26T20:31:15.998Z,18.20
2022-10-26T20:33:43.312Z,18.20
2022-10-26T20:36:10.557Z,18.20
2022-10-26T20:38:39.447Z,18.20
2022-10-26T20:41:10.298Z,18.20
2022-10-26T20:43:40.195Z,18.20
2022-10-26T20:46:11.610Z,18.20
2022-10-26T20:48:38.992Z,18.20
2022-10-26T20:51:37.695Z,18.20
2022-10-26T20:54:40.195Z,18.10
2022-10-26T20:57:14.321Z,18.20
2022-10-26T20:59:46.711Z,18.10
2022-10-26T21:02:13.835Z,18.10
2022-10-26T21:04:41.084Z,18.00
2022-10-26T21:07:08.745Z,18.00
2022-10-26T21:09:36.873Z,18.00
2022-10-26T21:12:04.625Z,18.00
2022-10-26T21:14:35.848Z,18.00
2022-10-26T21:17:02.881Z,17.90
2022-10-26T21:19:29.920Z,17.90
2022-10-26T21:21:57.464Z,17.90
2022-10-26T21:24:24.454Z,17.90
2022-10-26T21:26:52.429Z,17.90
2022-10-26T21:29:19.571Z,17.90
2022-10-26T21:31:46.599Z,17.90
2022-10-26T21:34:13.458Z,17.90
2022-10-26T21:36:40.473Z,17.90
2022-10-26T21:39:07.568Z,17.90
2022-10-26T21:41:38.057Z,17.90
2022-10-26T21:44:09.745Z,17.90
2022-10-26T21:46:40.808Z,17.90
2022-10-26T21:49:07.848Z,17.90
2022-10-26T21:51:35.646Z,17.80
2022-10-26T21:54:03.944Z,17.80
2022-10-26T21:56:31.056Z,17.80
2022-10-26T21:59:00.406Z,17.80
2022-10-26T22:01:27.892Z,17.70
2022-10-26T22:03:55.131Z,17.70
2022-10-26T22:06:22.663Z,17.80
2022-10-26T22:08:49.825Z,17.70
2022-10-26T22:11:22.945Z,17.70
2022-10-26T22:13:51.409Z,17.70
2022-10-26T22:16:24.818Z,17.70
2022-10-26T22:18:54.041Z,17.70
2022-10-26T22:21:22.534Z,17.70
2022-10-26T22:23:49.576Z,17.60
2022-10-26T22:26:21.540Z,17.60
2022-10-26T22:28:51.657Z,17.70
2022-10-26T22:31:22.196Z,17.70
2022-10-26T22:33:53.514Z,17.70
2022-10-26T22:36:21.007Z,17.70
2022-10-26T22:38:49.793Z,17.70
2022-10-26T22:41:18.671Z,17.70
2022-10-26T22:43:59.519Z,17.70
2022-10-26T22:46:28.206Z,17.70
2022-10-26T22:48:55.757Z,17.70
2022-10-26T22:51:24.939Z,17.70
2022-10-26T22:53:53.611Z,17.60
2022-10-26T22:56:23.447Z,17.60
2022-10-26T22:58:59.736Z,17.60
2022-10-26T23:01:31.255Z,17.60
2022-10-26T23:03:59.558Z,17.60
2022-10-26T23:06:28.728Z,17.60
2022-10-26T23:08:55.997Z,17.60
2022-10-26T23:11:26.980Z,17.70
2022-10-26T23:13:55.410Z,17.60
2022-10-26T23:16:22.391Z,17.60
2022-10-26T23:18:49.620Z,17.70
2022-10-26T23:21:17.770Z,17.60
2022-10-26T23:23:45.436Z,17.60
2022-10-26T23:26:17.821Z,17.60
2022-10-26T23:28:45.095Z,17.70
2022-10-26T23:31:17.180Z,17.60
2022-10-26T23:33:44.374Z,17.60
2022-10-26T23:36:11.612Z,17.60
2022-10-26T23:39:04.106Z,17.60
2022-10-26T23:41:31.581Z,17.60
2022-10-26T23:43:58.788Z,17.50
2022-10-26T23:48:55.150Z,17.60
2022-10-26T23:51:22.428Z,17.60
2022-10-26T23:53:49.293Z,17.60
2022-10-26T23:56:16.289Z,17.70
2022-10-26T23:58:43.239Z,17.70
